createdAt,value
2016-02-12T00:00:15.425Z,997.53
2016-02-12T00:01:15.474Z,997.54
2016-02-12T00:02:15.523Z,997.54
2016-02-12T00:03:15.589Z,997.53
2016-02-12T00:04:15.638Z,997.56
2016-02-12T00:05:15.688Z,997.52
2016-02-12T00:06:15.738Z,997.52
2016-02-12T00:07:15.803Z,997.53
2016-02-12T00:08:15.853Z,997.5
2016-02-12T00:09:15.903Z,997.53
2016-02-12T00:10:15.952Z,997.54
2016-02-12T00:11:16.012Z,997.48
2016-02-12T00:12:16.061Z,997.48
2016-02-12T00:13:16.112Z,997.45
2016-02-12T00:14:16.176Z,997.48
2016-02-12T00:15:16.226Z,997.46
2016-02-12T00:16:16.275Z,997.47
2016-02-12T00:17:16.341Z,997.43
2016-02-12T00:18:16.390Z,997.45
2016-02-12T00:19:16.440Z,997.45
2016-02-12T00:20:16.491Z,997.43
2016-02-12T00:21:16.540Z,997.45
2016-02-12T00:22:16.605Z,997.4
2016-02-12T00:23:16.654Z,997.37
2016-02-12T00:24:16.694Z,997.38
2016-02-12T00:25:16.732Z,997.37
2016-02-12T00:26:16.785Z,997.37
2016-02-12T00:27:16.822Z,997.37
2016-02-12T00:28:16.867Z,997.35
2016-02-12T00:29:16.916Z,997.36
2016-02-12T00:30:16.962Z,997.36
2016-02-12T00:31:17.007Z,997.34
2016-02-12T00:32:17.053Z,997.37
2016-02-12T00:33:17.113Z,997.33
2016-02-12T00:34:17.162Z,997.37
2016-02-12T00:35:17.210Z,997.39
2016-02-12T00:36:17.273Z,997.4
2016-02-12T00:37:17.309Z,997.38
2016-02-12T00:38:17.357Z,997.42
2016-02-12T00:39:17.422Z,997.41
2016-02-12T00:40:17.470Z,997.44
2016-02-12T00:41:17.520Z,997.45
2016-02-12T00:42:17.567Z,997.42
2016-02-12T00:43:17.630Z,997.37
2016-02-12T00:44:17.679Z,997.35
2016-02-12T00:45:17.729Z,997.33
2016-02-12T00:46:17.779Z,997.31
2016-02-12T00:47:17.843Z,997.28
2016-02-12T00:48:17.892Z,997.33
2016-02-12T00:49:17.942Z,997.34
2016-02-12T00:50:17.992Z,997.34
2016-02-12T00:51:18.057Z,997.32
2016-02-12T00:52:18.106Z,997.28
2016-02-12T00:53:18.156Z,997.31
2016-02-12T00:54:18.207Z,997.29
2016-02-12T00:55:18.271Z,997.29
2016-02-12T00:56:18.321Z,997.32
2016-02-12T00:57:18.371Z,997.28
2016-02-12T00:58:18.420Z,997.26
2016-02-12T00:59:18.486Z,997.3
2016-02-12T01:00:18.535Z,997.29
2016-02-12T01:01:18.585Z,997.26
2016-02-12T01:02:18.635Z,997.26
2016-02-12T01:03:18.693Z,997.25
2016-02-12T01:04:18.743Z,997.29
2016-02-12T01:05:18.792Z,997.27
2016-02-12T01:06:18.857Z,997.26
2016-02-12T01:07:18.923Z,997.25
2016-02-12T01:08:18.956Z,997.24
2016-02-12T01:09:19.006Z,997.28
2016-02-12T01:10:19.071Z,997.24
2016-02-12T01:11:19.139Z,997.27
2016-02-12T01:12:19.173Z,997.26
2016-02-12T01:13:19.226Z,997.28
2016-02-12T01:14:19.291Z,997.28
2016-02-12T01:15:19.325Z,997.26
2016-02-12T01:16:19.390Z,997.27
2016-02-12T01:17:19.440Z,997.25
2016-02-12T01:18:19.489Z,997.26
2016-02-12T01:19:19.538Z,997.26
2016-02-12T01:20:19.605Z,997.23
2016-02-12T01:21:19.654Z,997.22
2016-02-12T01:22:19.719Z,997.25
2016-02-12T01:23:19.754Z,997.22
2016-02-12T01:24:19.803Z,997.23
2016-02-12T01:25:19.868Z,997.22
2016-02-12T01:26:19.918Z,997.23
2016-02-12T01:27:19.982Z,997.2
2016-02-12T01:28:20.032Z,997.21
2016-02-12T01:29:20.082Z,997.23
2016-02-12T01:30:20.132Z,997.25
2016-02-12T01:31:20.182Z,997.21
2016-02-12T01:32:20.247Z,997.24
2016-02-12T01:33:20.297Z,997.23
2016-02-12T01:34:20.346Z,997.21
2016-02-12T01:35:20.397Z,997.2
2016-02-12T01:36:20.447Z,997.24
2016-02-12T01:37:20.511Z,997.24
2016-02-12T01:38:20.561Z,997.24
2016-02-12T01:39:20.611Z,997.22
2016-02-12T01:40:20.664Z,997.2
2016-02-12T01:41:20.728Z,997.23
2016-02-12T01:42:20.778Z,997.21
2016-02-12T01:43:20.831Z,997.2
2016-02-12T01:44:20.880Z,997.22
2016-02-12T01:45:20.930Z,997.2
2016-02-12T01:46:20.980Z,997.18
2016-02-12T01:47:21.045Z,997.25
2016-02-12T01:48:21.095Z,997.28
2016-02-12T01:49:21.145Z,997.26
2016-02-12T01:50:21.194Z,997.29
2016-02-12T01:51:21.244Z,997.32
2016-02-12T01:52:21.309Z,997.32
2016-02-12T01:53:21.358Z,997.37
2016-02-12T01:54:21.408Z,997.32
2016-02-12T01:55:21.458Z,997.3
2016-02-12T01:56:21.522Z,997.31
2016-02-12T01:57:21.573Z,997.29
2016-02-12T01:58:21.623Z,997.27
2016-02-12T01:59:21.672Z,997.3
2016-02-12T02:00:21.737Z,997.25
2016-02-12T02:01:21.787Z,997.29
2016-02-12T02:02:21.836Z,997.25
2016-02-12T02:03:21.902Z,997.26
2016-02-12T02:04:21.935Z,997.28
2016-02-12T02:05:22.000Z,997.28
2016-02-12T02:06:22.051Z,997.28
2016-02-12T02:07:22.101Z,997.33
2016-02-12T02:08:22.151Z,997.33
2016-02-12T02:09:22.215Z,997.3
2016-02-12T02:10:22.265Z,997.3
2016-02-12T02:11:22.315Z,997.32
2016-02-12T02:12:22.380Z,997.34
2016-02-12T02:13:22.431Z,997.34
2016-02-12T02:14:22.481Z,997.32
2016-02-12T02:15:22.531Z,997.33
2016-02-12T02:16:22.580Z,997.31
2016-02-12T02:17:22.630Z,997.33
2016-02-12T02:18:22.695Z,997.31
2016-02-12T02:19:22.760Z,997.3
2016-02-12T02:20:22.794Z,997.32
2016-02-12T02:21:22.844Z,997.31
2016-02-12T02:22:22.909Z,997.32
2016-02-12T02:23:22.959Z,997.31
2016-02-12T02:24:23.008Z,997.34
2016-02-12T02:25:23.057Z,997.32
2016-02-12T02:26:23.107Z,997.33
2016-02-12T02:27:23.173Z,997.29
2016-02-12T02:28:23.222Z,997.24
2016-02-12T02:29:23.271Z,997.27
2016-02-12T02:30:23.337Z,997.28
2016-02-12T02:31:23.387Z,997.22
2016-02-12T02:32:23.436Z,997.22
2016-02-12T02:33:23.486Z,997.26
2016-02-12T02:34:23.535Z,997.23
2016-02-12T02:35:23.600Z,997.21
2016-02-12T02:36:23.650Z,997.18
2016-02-12T02:37:23.700Z,997.19
2016-02-12T02:38:23.749Z,997.15
2016-02-12T02:39:23.814Z,997.18
2016-02-12T02:40:23.865Z,997.17
2016-02-12T02:41:23.914Z,997.19
2016-02-12T02:42:23.964Z,997.14
2016-02-12T02:43:24.017Z,997.13
2016-02-12T02:44:24.066Z,997.13
2016-02-12T02:45:24.132Z,997.15
2016-02-12T02:46:24.182Z,997.07
2016-02-12T02:47:24.231Z,997.1
2016-02-12T02:48:24.282Z,997.05
2016-02-12T02:49:24.348Z,997.02
2016-02-12T02:50:24.398Z,997.03
2016-02-12T02:51:24.448Z,997.01
2016-02-12T02:52:24.497Z,997.01
2016-02-12T02:53:24.547Z,997.02
2016-02-12T02:54:24.596Z,997
2016-02-12T02:55:24.663Z,997.01
2016-02-12T02:56:24.712Z,997.02
2016-02-12T02:57:24.760Z,997.01
2016-02-12T02:58:24.810Z,996.98
2016-02-12T02:59:24.876Z,996.95
2016-02-12T03:00:24.927Z,996.99
2016-02-12T03:01:24.977Z,996.94
2016-02-12T03:02:25.026Z,996.99
2016-02-12T03:03:25.075Z,996.98
2016-02-12T03:04:25.141Z,996.99
2016-02-12T03:05:25.191Z,996.96
2016-02-12T03:06:25.241Z,996.94
2016-02-12T03:07:25.289Z,996.95
2016-02-12T03:08:25.357Z,996.94
2016-02-12T03:09:25.391Z,996.92
2016-02-12T03:10:25.456Z,996.91
2016-02-12T03:11:25.510Z,996.94
2016-02-12T03:12:25.560Z,996.92
2016-02-12T03:13:25.609Z,996.91
2016-02-12T03:14:25.660Z,996.9
2016-02-12T03:15:25.726Z,996.91
2016-02-12T03:16:25.774Z,996.92
2016-02-12T03:17:25.825Z,996.93
2016-02-12T03:18:25.875Z,996.92
2016-02-12T03:19:25.941Z,996.94
2016-02-12T03:20:25.989Z,996.96
2016-02-12T03:21:26.039Z,996.94
2016-02-12T03:22:26.089Z,996.91
2016-02-12T03:23:26.138Z,996.95
2016-02-12T03:24:26.204Z,996.92
2016-02-12T03:25:26.253Z,996.91
2016-02-12T03:26:26.302Z,996.91
2016-02-12T03:27:26.353Z,996.9
2016-02-12T03:28:26.402Z,996.95
2016-02-12T03:29:26.467Z,996.88
2016-02-12T03:30:26.516Z,996.92
2016-02-12T03:31:26.566Z,996.92
2016-02-12T03:32:26.615Z,996.93
2016-02-12T03:33:26.681Z,996.91
2016-02-12T03:34:26.716Z,996.86
2016-02-12T03:35:26.781Z,996.85
2016-02-12T03:36:26.830Z,996.83
2016-02-12T03:37:26.881Z,996.87
2016-02-12T03:38:26.931Z,996.83
2016-02-12T03:39:26.996Z,996.83
2016-02-12T03:40:27.045Z,996.87
2016-02-12T03:41:27.095Z,996.83
2016-02-12T03:42:27.160Z,996.84
2016-02-12T03:43:27.199Z,996.85
2016-02-12T03:44:27.263Z,996.81
2016-02-12T03:45:27.313Z,996.82
2016-02-12T03:46:27.362Z,996.79
2016-02-12T03:47:27.412Z,996.8
2016-02-12T03:48:27.461Z,996.76
2016-02-12T03:49:27.526Z,996.76
2016-02-12T03:50:27.575Z,996.75
2016-02-12T03:51:27.626Z,996.76
2016-02-12T03:52:27.675Z,996.77
2016-02-12T03:53:27.741Z,996.77
2016-02-12T03:54:27.790Z,996.78
2016-02-12T03:55:27.840Z,996.72
2016-02-12T03:56:27.906Z,996.73
2016-02-12T03:57:27.955Z,996.72
2016-02-12T03:58:28.005Z,996.72
2016-02-12T03:59:28.054Z,996.76
2016-02-12T04:00:28.103Z,996.74
2016-02-12T04:01:28.153Z,996.76
2016-02-12T04:02:28.202Z,996.72
2016-02-12T04:03:28.269Z,996.72
2016-02-12T04:04:28.318Z,996.71
2016-02-12T04:05:28.367Z,996.7
2016-02-12T04:06:28.417Z,996.69
2016-02-12T04:07:28.467Z,996.7
2016-02-12T04:08:28.532Z,996.69
2016-02-12T04:09:28.581Z,996.73
2016-02-12T04:10:28.631Z,996.72
2016-02-12T04:11:28.699Z,996.73
2016-02-12T04:12:28.736Z,996.73
2016-02-12T04:13:28.786Z,996.73
2016-02-12T04:14:28.851Z,996.7
2016-02-12T04:15:28.901Z,996.75
2016-02-12T04:16:28.950Z,996.71
2016-02-12T04:17:29.017Z,996.72
2016-02-12T04:18:29.065Z,996.7
2016-02-12T04:19:29.115Z,996.71
2016-02-12T04:20:29.167Z,996.72
2016-02-12T04:21:29.216Z,996.73
2016-02-12T04:22:29.281Z,996.7
2016-02-12T04:23:29.331Z,996.68
2016-02-12T04:24:29.380Z,996.7
2016-02-12T04:25:29.446Z,996.7
2016-02-12T04:26:29.496Z,996.72
2016-02-12T04:27:29.529Z,996.68
2016-02-12T04:28:29.596Z,996.7
2016-02-12T04:29:29.645Z,996.7
2016-02-12T04:30:29.696Z,996.68
2016-02-12T04:31:29.745Z,996.7
2016-02-12T04:32:29.794Z,996.7
2016-02-12T04:33:29.860Z,996.69
2016-02-12T04:34:29.909Z,996.71
2016-02-12T04:35:29.959Z,996.69
2016-02-12T04:36:30.009Z,996.69
2016-02-12T04:37:30.074Z,996.68
2016-02-12T04:38:30.124Z,996.69
2016-02-12T04:39:30.174Z,996.7
2016-02-12T04:40:30.226Z,996.7
2016-02-12T04:41:30.275Z,996.69
2016-02-12T04:42:30.325Z,996.71
2016-02-12T04:43:30.390Z,996.69
2016-02-12T04:44:30.440Z,996.64
2016-02-12T04:45:30.489Z,996.67
2016-02-12T04:46:30.541Z,996.66
2016-02-12T04:47:30.590Z,996.69
2016-02-12T04:48:30.655Z,996.66
2016-02-12T04:49:30.705Z,996.66
2016-02-12T04:50:30.755Z,996.63
2016-02-12T04:51:30.805Z,996.64
2016-02-12T04:52:30.855Z,996.64
2016-02-12T04:53:30.919Z,996.62
2016-02-12T04:54:30.969Z,996.6
2016-02-12T04:55:31.018Z,996.58
2016-02-12T04:56:31.069Z,996.56
2016-02-12T04:57:31.118Z,996.57
2016-02-12T04:58:31.182Z,996.55
2016-02-12T04:59:31.232Z,996.56
2016-02-12T05:00:31.282Z,996.55
2016-02-12T05:01:31.332Z,996.51
2016-02-12T05:02:31.397Z,996.5
2016-02-12T05:03:31.446Z,996.52
2016-02-12T05:04:31.496Z,996.5
2016-02-12T05:05:31.545Z,996.48
2016-02-12T05:06:31.612Z,996.47
2016-02-12T05:07:31.646Z,996.48
2016-02-12T05:08:31.710Z,996.49
2016-02-12T05:09:31.760Z,996.47
2016-02-12T05:10:31.826Z,996.51
2016-02-12T05:11:31.875Z,996.46
2016-02-12T05:12:31.915Z,996.44
2016-02-12T05:13:31.979Z,996.44
2016-02-12T05:14:32.029Z,996.42
2016-02-12T05:15:32.078Z,996.39
2016-02-12T05:16:32.128Z,996.42
2016-02-12T05:17:32.193Z,996.39
2016-02-12T05:18:32.243Z,996.37
2016-02-12T05:19:32.293Z,996.36
2016-02-12T05:20:32.343Z,996.38
2016-02-12T05:21:32.392Z,996.37
2016-02-12T05:22:32.458Z,996.38
2016-02-12T05:23:32.492Z,996.34
2016-02-12T05:24:32.558Z,996.31
2016-02-12T05:25:32.608Z,996.31
2016-02-12T05:26:32.657Z,996.28
2016-02-12T05:27:32.705Z,996.25
2016-02-12T05:28:32.772Z,996.26
2016-02-12T05:29:32.821Z,996.2
2016-02-12T05:30:32.871Z,996.22
2016-02-12T05:31:32.935Z,996.22
2016-02-12T05:32:32.969Z,996.2
2016-02-12T05:33:33.035Z,996.18
2016-02-12T05:34:33.085Z,996.17
2016-02-12T05:35:33.135Z,996.15
2016-02-12T05:36:33.184Z,996.21
2016-02-12T05:37:33.264Z,996.16
2016-02-12T05:38:33.299Z,996.2
2016-02-12T05:39:33.348Z,996.19
2016-02-12T05:40:33.404Z,996.17
2016-02-12T05:41:33.453Z,996.18
2016-02-12T05:42:33.502Z,996.16
2016-02-12T05:43:33.554Z,996.15
2016-02-12T05:44:33.619Z,996.14
2016-02-12T05:45:33.669Z,996.09
2016-02-12T05:46:33.718Z,996.13
2016-02-12T05:47:33.767Z,996.11
2016-02-12T05:48:33.833Z,996.1
2016-02-12T05:49:33.884Z,996.1
2016-02-12T05:50:33.933Z,996.12
2016-02-12T05:51:33.999Z,996.13
2016-02-12T05:52:34.048Z,996.05
2016-02-12T05:53:34.082Z,996.1
2016-02-12T05:54:34.131Z,996.1
2016-02-12T05:55:34.197Z,996.05
2016-02-12T05:56:34.246Z,996.08
2016-02-12T05:57:34.298Z,996.05
2016-02-12T05:58:34.364Z,996.06
2016-02-12T05:59:34.414Z,996.04
2016-02-12T06:00:34.465Z,996.08
2016-02-12T06:01:34.515Z,996.05
2016-02-12T06:02:34.565Z,996.06
2016-02-12T06:03:34.614Z,996.06
2016-02-12T06:04:34.664Z,996.03
2016-02-12T06:05:34.714Z,996.05
2016-02-12T06:06:34.779Z,996.01
2016-02-12T06:07:34.828Z,996.05
2016-02-12T06:08:34.878Z,996.04
2016-02-12T06:09:34.944Z,996
2016-02-12T06:10:34.996Z,996.04
2016-02-12T06:11:35.031Z,996.02
2016-02-12T06:12:35.096Z,995.98
2016-02-12T06:13:35.145Z,995.96
2016-02-12T06:14:35.210Z,996
2016-02-12T06:15:35.260Z,995.97
2016-02-12T06:16:35.309Z,995.95
2016-02-12T06:17:35.360Z,995.91
2016-02-12T06:18:35.410Z,995.93
2016-02-12T06:19:35.459Z,995.94
2016-02-12T06:20:35.524Z,995.92
2016-02-12T06:21:35.573Z,995.91
2016-02-12T06:22:35.624Z,995.93
2016-02-12T06:23:35.673Z,995.93
2016-02-12T06:24:35.723Z,995.94
2016-02-12T06:25:35.773Z,995.88
2016-02-12T06:26:35.822Z,995.92
2016-02-12T06:27:35.888Z,995.9
2016-02-12T06:28:35.938Z,995.92
2016-02-12T06:29:35.987Z,995.86
2016-02-12T06:30:36.052Z,995.88
2016-02-12T06:31:36.102Z,995.85
2016-02-12T06:32:36.152Z,995.83
2016-02-12T06:33:36.201Z,995.8
2016-02-12T06:34:36.268Z,995.81
2016-02-12T06:35:36.303Z,995.81
2016-02-12T06:36:36.368Z,995.78
2016-02-12T06:37:36.417Z,995.76
2016-02-12T06:38:36.467Z,995.77
2016-02-12T06:39:36.532Z,995.78
2016-02-12T06:40:36.566Z,995.76
2016-02-12T06:41:36.632Z,995.74
2016-02-12T06:42:36.681Z,995.79
2016-02-12T06:43:36.718Z,995.78
2016-02-12T06:44:36.783Z,995.77
2016-02-12T06:45:36.833Z,995.81
2016-02-12T06:46:36.882Z,995.82
2016-02-12T06:47:36.932Z,995.8
2016-02-12T06:48:36.998Z,995.78
2016-02-12T06:49:37.047Z,995.82
2016-02-12T06:50:37.096Z,995.81
2016-02-12T06:51:37.162Z,995.79
2016-02-12T06:52:37.213Z,995.77
2016-02-12T06:53:37.262Z,995.83
2016-02-12T06:54:37.312Z,995.8
2016-02-12T06:55:37.361Z,995.79
2016-02-12T06:56:37.427Z,995.83
2016-02-12T06:57:37.461Z,995.8
2016-02-12T06:58:37.510Z,995.83
2016-02-12T06:59:37.576Z,995.83
2016-02-12T07:00:37.625Z,995.81
2016-02-12T07:01:37.676Z,995.79
2016-02-12T07:02:37.741Z,995.8
2016-02-12T07:03:37.806Z,995.84
2016-02-12T07:04:37.841Z,995.78
2016-02-12T07:05:37.890Z,995.78
2016-02-12T07:06:37.940Z,995.76
2016-02-12T07:07:38.006Z,995.74
2016-02-12T07:08:38.055Z,995.78
2016-02-12T07:09:38.105Z,995.77
2016-02-12T07:10:38.154Z,995.77
2016-02-12T07:11:38.208Z,995.78
2016-02-12T07:12:38.258Z,995.76
2016-02-12T07:13:38.307Z,995.72
2016-02-12T07:14:38.373Z,995.68
2016-02-12T07:15:38.422Z,995.72
2016-02-12T07:16:38.471Z,995.75
2016-02-12T07:17:38.553Z,995.66
2016-02-12T07:18:38.571Z,995.75
2016-02-12T07:19:38.621Z,995.71
2016-02-12T07:20:38.685Z,995.68
2016-02-12T07:21:38.735Z,995.71
2016-02-12T07:22:38.785Z,995.77
2016-02-12T07:23:38.850Z,995.72
2016-02-12T07:24:38.884Z,995.73
2016-02-12T07:25:38.949Z,995.73
2016-02-12T07:26:38.998Z,995.75
2016-02-12T07:27:39.065Z,995.8
2016-02-12T07:28:39.098Z,995.75
2016-02-12T07:29:39.163Z,995.74
2016-02-12T07:30:39.212Z,995.73
2016-02-12T07:31:39.262Z,995.75
2016-02-12T07:32:39.312Z,995.76
2016-02-12T07:33:39.361Z,995.73
2016-02-12T07:34:39.427Z,995.73
2016-02-12T07:35:39.476Z,995.73
2016-02-12T07:36:39.525Z,995.69
2016-02-12T07:37:39.576Z,995.7
2016-02-12T07:38:39.641Z,995.7
2016-02-12T07:39:39.675Z,995.65
2016-02-12T07:40:39.741Z,995.75
2016-02-12T07:41:39.791Z,995.73
2016-02-12T07:42:39.840Z,995.68
2016-02-12T07:43:39.890Z,995.65
2016-02-12T07:44:39.940Z,995.67
2016-02-12T07:45:40.005Z,995.65
2016-02-12T07:46:40.055Z,995.6
2016-02-12T07:47:40.105Z,995.61
2016-02-12T07:48:40.170Z,995.67
2016-02-12T07:49:40.219Z,995.67
2016-02-12T07:50:40.255Z,995.67
2016-02-12T07:51:40.319Z,995.66
2016-02-12T07:52:40.368Z,995.65
2016-02-12T07:53:40.418Z,995.66
2016-02-12T07:54:40.468Z,995.66
2016-02-12T07:55:40.534Z,995.65
2016-02-12T07:56:40.583Z,995.68
2016-02-12T07:57:40.633Z,995.69
2016-02-12T07:58:40.683Z,995.66
2016-02-12T07:59:40.732Z,995.64
2016-02-12T08:00:40.797Z,995.64
2016-02-12T08:01:40.847Z,995.62
2016-02-12T08:02:40.896Z,995.6
2016-02-12T08:03:40.948Z,995.59
2016-02-12T08:04:40.998Z,995.62
2016-02-12T08:05:41.047Z,995.54
2016-02-12T08:06:41.112Z,995.58
2016-02-12T08:07:41.162Z,995.54
2016-02-12T08:08:41.212Z,995.51
2016-02-12T08:09:41.261Z,995.51
2016-02-12T08:10:41.311Z,995.52
2016-02-12T08:11:41.376Z,995.48
2016-02-12T08:12:41.426Z,995.47
2016-02-12T08:13:41.479Z,995.51
2016-02-12T08:14:41.529Z,995.49
2016-02-12T08:15:41.578Z,995.5
2016-02-12T08:16:41.628Z,995.48
2016-02-12T08:17:41.694Z,995.46
2016-02-12T08:18:41.743Z,995.47
2016-02-12T08:19:41.793Z,995.47
2016-02-12T08:20:41.844Z,995.46
2016-02-12T08:21:41.893Z,995.44
2016-02-12T08:22:41.959Z,995.42
2016-02-12T08:23:41.996Z,995.41
2016-02-12T08:24:42.046Z,995.42
2016-02-12T08:25:42.110Z,995.41
2016-02-12T08:26:42.160Z,995.42
2016-02-12T08:27:42.209Z,995.45
2016-02-12T08:28:42.274Z,995.43
2016-02-12T08:29:42.323Z,995.4
2016-02-12T08:30:42.385Z,995.43
2016-02-12T08:31:42.418Z,995.42
2016-02-12T08:32:42.468Z,995.37
2016-02-12T08:33:42.517Z,995.41
2016-02-12T08:34:42.584Z,995.41
2016-02-12T08:35:42.617Z,995.37
2016-02-12T08:36:42.682Z,995.38
2016-02-12T08:37:42.732Z,995.43
2016-02-12T08:38:42.781Z,995.39
2016-02-12T08:39:42.831Z,995.39
2016-02-12T08:40:42.896Z,995.37
2016-02-12T08:41:42.935Z,995.36
2016-02-12T08:42:42.984Z,995.41
2016-02-12T08:43:43.052Z,995.37
2016-02-12T08:44:43.101Z,995.39
2016-02-12T08:45:43.151Z,995.38
2016-02-12T08:46:43.200Z,995.33
2016-02-12T08:47:43.249Z,995.4
2016-02-12T08:48:43.316Z,995.36
2016-02-12T08:49:43.351Z,995.36
2016-02-12T08:50:43.401Z,995.34
2016-02-12T08:51:43.465Z,995.33
2016-02-12T08:52:43.515Z,995.34
2016-02-12T08:53:43.565Z,995.31
2016-02-12T08:54:43.630Z,995.3
2016-02-12T08:55:43.680Z,995.35
2016-02-12T08:56:43.714Z,995.31
2016-02-12T08:57:43.778Z,995.29
2016-02-12T08:58:43.829Z,995.27
2016-02-12T08:59:43.879Z,995.27
2016-02-12T09:00:43.928Z,995.3
2016-02-12T09:01:43.993Z,995.28
2016-02-12T09:02:44.028Z,995.29
2016-02-12T09:03:44.077Z,995.3
2016-02-12T09:04:44.147Z,995.29
2016-02-12T09:05:44.181Z,995.3
2016-02-12T09:06:44.247Z,995.28
2016-02-12T09:07:44.296Z,995.28
2016-02-12T09:08:44.345Z,995.26
2016-02-12T09:09:44.395Z,995.25
2016-02-12T09:10:44.460Z,995.26
2016-02-12T09:11:44.510Z,995.27
2016-02-12T09:12:44.562Z,995.25
2016-02-12T09:13:44.611Z,995.23
2016-02-12T09:14:44.661Z,995.25
2016-02-12T09:15:44.712Z,995.21
2016-02-12T09:16:44.762Z,995.21
2016-02-12T09:17:44.811Z,995.16
2016-02-12T09:18:44.875Z,995.17
2016-02-12T09:19:44.926Z,995.19
2016-02-12T09:20:44.976Z,995.15
2016-02-12T09:21:45.026Z,995.13
2016-02-12T09:22:45.076Z,995.14
2016-02-12T09:23:45.125Z,995.11
2016-02-12T09:24:45.176Z,995.15
2016-02-12T09:25:45.226Z,995.11
2016-02-12T09:26:45.292Z,995.15
2016-02-12T09:27:45.342Z,995.12
2016-02-12T09:28:45.392Z,995.13
2016-02-12T09:29:45.437Z,995.12
2016-02-12T09:30:45.475Z,995.13
2016-02-12T09:31:45.511Z,995.14
2016-02-12T09:32:45.549Z,995.12
2016-02-12T09:33:45.592Z,995.14
2016-02-12T09:34:45.630Z,995.13
2016-02-12T09:35:45.676Z,995.12
2016-02-12T09:36:45.736Z,995.1
2016-02-12T09:37:45.780Z,995.1
2016-02-12T09:38:45.825Z,995.09
2016-02-12T09:39:45.872Z,995.06
2016-02-12T09:40:45.934Z,995.1
2016-02-12T09:41:45.967Z,995.04
2016-02-12T09:42:46.016Z,995.05
2016-02-12T09:43:46.064Z,995.04
2016-02-12T09:44:46.129Z,995
2016-02-12T09:45:46.163Z,995
2016-02-12T09:46:46.226Z,994.93
2016-02-12T09:47:46.275Z,995
2016-02-12T09:48:46.324Z,994.94
2016-02-12T09:49:46.373Z,994.92
2016-02-12T09:50:46.423Z,994.85
2016-02-12T09:51:46.473Z,994.87
2016-02-12T09:52:46.525Z,994.91
2016-02-12T09:53:46.574Z,994.84
2016-02-12T09:54:46.624Z,994.85
2016-02-12T09:55:46.690Z,994.87
2016-02-12T09:56:46.724Z,994.83
2016-02-12T09:57:46.789Z,994.82
2016-02-12T09:58:46.837Z,994.91
2016-02-12T09:59:46.887Z,994.86
2016-02-12T10:00:46.937Z,994.8
2016-02-12T10:01:46.987Z,994.85
2016-02-12T10:02:41.737Z,994.85
2016-02-12T10:03:47.084Z,994.83
2016-02-12T10:04:47.149Z,994.86
2016-02-12T10:05:47.200Z,994.82
2016-02-12T10:06:47.249Z,994.84
2016-02-12T10:07:47.299Z,994.87
2016-02-12T10:08:47.349Z,994.86
2016-02-12T10:09:47.413Z,994.86
2016-02-12T10:10:47.465Z,994.86
2016-02-12T10:11:47.500Z,994.81
2016-02-12T10:12:47.565Z,994.82
2016-02-12T10:13:47.619Z,994.77
2016-02-12T10:14:47.684Z,994.81
2016-02-12T10:15:47.702Z,994.76
2016-02-12T10:16:47.767Z,994.75
2016-02-12T10:17:47.817Z,994.71
2016-02-12T10:18:47.868Z,994.71
2016-02-12T10:19:47.917Z,994.68
2016-02-12T10:20:47.967Z,994.68
2016-02-12T10:21:48.031Z,994.66
2016-02-12T10:22:48.081Z,994.65
2016-02-12T10:23:48.115Z,994.66
2016-02-12T10:24:48.181Z,994.63
2016-02-12T10:25:48.231Z,994.62
2016-02-12T10:26:48.280Z,994.59
2016-02-12T10:27:48.332Z,994.6
2016-02-12T10:28:48.380Z,994.57
2016-02-12T10:29:48.430Z,994.54
2016-02-12T10:30:48.480Z,994.5
2016-02-12T10:31:48.529Z,994.48
2016-02-12T10:32:48.595Z,994.48
2016-02-12T10:33:48.629Z,994.43
2016-02-12T10:34:48.678Z,994.46
2016-02-12T10:35:48.744Z,994.43
2016-02-12T10:36:48.841Z,994.39
2016-02-12T10:37:48.844Z,994.47
2016-02-12T10:38:48.895Z,994.44
2016-02-12T10:39:48.945Z,994.44
2016-02-12T10:40:48.993Z,994.4
2016-02-12T10:41:49.043Z,994.39
2016-02-12T10:42:49.109Z,994.43
2016-02-12T10:43:49.148Z,994.4
2016-02-12T10:44:49.197Z,994.37
2016-02-12T10:45:49.262Z,994.36
2016-02-12T10:46:49.296Z,994.34
2016-02-12T10:47:49.352Z,994.3
2016-02-12T10:48:49.401Z,994.3
2016-02-12T10:49:49.450Z,994.28
2016-02-12T10:50:49.501Z,994.3
2016-02-12T10:51:49.565Z,994.28
2016-02-12T10:52:49.615Z,994.24
2016-02-12T10:53:49.665Z,994.21
2016-02-12T10:54:49.714Z,994.22
2016-02-12T10:55:49.764Z,994.15
2016-02-12T10:56:49.814Z,994.12
2016-02-12T10:57:49.863Z,994.11
2016-02-12T10:58:49.913Z,994.06
2016-02-12T10:59:49.978Z,994.08
2016-02-12T11:00:50.011Z,994.02
2016-02-12T11:01:50.077Z,994.02
2016-02-12T11:02:50.127Z,993.98
2016-02-12T11:03:50.176Z,994.01
2016-02-12T11:04:50.227Z,993.96
2016-02-12T11:05:50.276Z,993.9
2016-02-12T11:06:50.341Z,993.91
2016-02-12T11:07:50.375Z,993.93
2016-02-12T11:08:50.424Z,993.91
2016-02-12T11:09:50.474Z,993.92
2016-02-12T11:10:50.539Z,993.89
2016-02-12T11:11:50.589Z,993.88
2016-02-12T11:12:50.638Z,993.89
2016-02-12T11:13:50.690Z,993.86
2016-02-12T11:14:50.742Z,993.81
2016-02-12T11:15:50.791Z,993.8
2016-02-12T11:16:50.841Z,993.8
2016-02-12T11:17:50.906Z,993.81
2016-02-12T11:18:50.940Z,993.84
2016-02-12T11:19:50.989Z,993.85
2016-02-12T11:20:51.056Z,993.78
2016-02-12T11:21:51.105Z,993.77
2016-02-12T11:22:51.155Z,993.76
2016-02-12T11:23:51.205Z,993.75
2016-02-12T11:24:51.254Z,993.71
2016-02-12T11:25:51.304Z,993.67
2016-02-12T11:26:51.354Z,993.67
2016-02-12T11:27:51.403Z,993.65
2016-02-12T11:28:51.468Z,993.65
2016-02-12T11:29:51.506Z,993.6
2016-02-12T11:30:51.556Z,993.59
2016-02-12T11:31:51.622Z,993.6
2016-02-12T11:32:51.672Z,993.64
2016-02-12T11:33:51.736Z,993.56
2016-02-12T11:34:51.770Z,993.54
2016-02-12T11:35:51.820Z,993.49
2016-02-12T11:36:51.869Z,993.45
2016-02-12T11:37:51.919Z,993.46
2016-02-12T11:38:51.969Z,993.4
2016-02-12T11:39:52.036Z,993.4
2016-02-12T11:40:52.070Z,993.35
2016-02-12T11:41:52.120Z,993.33
2016-02-12T11:42:52.186Z,993.35
2016-02-12T11:43:52.235Z,993.31
2016-02-12T11:44:52.289Z,993.32
2016-02-12T11:45:52.338Z,993.3
2016-02-12T11:46:52.388Z,993.23
2016-02-12T11:47:52.438Z,993.26
2016-02-12T11:48:52.488Z,993.21
2016-02-12T11:49:52.537Z,993.18
2016-02-12T11:50:52.588Z,993.18
2016-02-12T11:51:52.653Z,993.17
2016-02-12T11:52:52.702Z,993.17
2016-02-12T11:53:52.768Z,993.17
2016-02-12T11:54:52.802Z,993.2
2016-02-12T11:55:52.852Z,993.18
2016-02-12T11:56:52.903Z,993.17
2016-02-12T11:57:52.952Z,993.2
2016-02-12T11:58:53.002Z,993.15
2016-02-12T11:59:53.069Z,993.2
2016-02-12T12:00:53.103Z,993.2
2016-02-12T12:01:53.168Z,993.18
2016-02-12T12:02:53.218Z,993.21
2016-02-12T12:03:53.252Z,993.2
2016-02-12T12:04:53.318Z,993.16
2016-02-12T12:05:53.368Z,993.16
2016-02-12T12:06:53.417Z,993.13
2016-02-12T12:07:53.468Z,993.18
2016-02-12T12:08:53.518Z,993.15
2016-02-12T12:09:53.567Z,993.19
2016-02-12T12:10:53.616Z,993.11
2016-02-12T12:11:53.682Z,993.09
2016-02-12T12:12:53.731Z,993.12
2016-02-12T12:13:53.781Z,993.14
2016-02-12T12:14:53.830Z,993.15
2016-02-12T12:15:53.881Z,993.08
2016-02-12T12:16:53.932Z,993.08
2016-02-12T12:17:53.981Z,993.09
2016-02-12T12:18:54.031Z,993.07
2016-02-12T12:19:54.096Z,993.06
2016-02-12T12:20:54.131Z,993.06
2016-02-12T12:21:54.180Z,993.03
2016-02-12T12:22:54.245Z,993.1
2016-02-12T12:23:54.295Z,993.04
2016-02-12T12:24:54.344Z,993.06
2016-02-12T12:25:54.395Z,993.04
2016-02-12T12:26:54.443Z,992.98
2016-02-12T12:27:54.493Z,993.01
2016-02-12T12:28:54.559Z,993.01
2016-02-12T12:29:54.608Z,993.01
2016-02-12T12:30:54.643Z,992.96
2016-02-12T12:31:54.708Z,992.97